sensor_id;sensor_type;location;lat;lon;timestamp;P1;durP1;ratioP1;P2;durP2;ratioP2
14554;SDS011;7364;50.870;4.722;2023-04-03T00:00:45;9.50;;;7.57;;
14554;SDS011;7364;50.870;4.722;2023-04-03T00:03:13;10.83;;;7.70;;
14554;SDS011;7364;50.870;4.722;2023-04-03T00:05:40;11.73;;;7.23;;
14554;SDS011;7364;50.870;4.722;2023-04-03T00:08:09;9.10;;;7.57;;
14554;SDS011;7364;50.870;4.722;2023-04-03T00:10:36;10.03;;;7.10;;
14554;SDS011;7364;50.870;4.722;2023-04-03T00:13:04;11.50;;;8.10;;
14554;SDS011;7364;50.870;4.722;2023-04-03T00:15:32;9.23;;;7.30;;
14554;SDS011;7364;50.870;4.722;2023-04-03T00:18:01;9.77;;;7.87;;
14554;SDS011;7364;50.870;4.722;2023-04-03T00:20:32;10.60;;;7.10;;
14554;SDS011;7364;50.870;4.722;2023-04-03T00:23:00;7.93;;;6.23;;
14554;SDS011;7364;50.870;4.722;2023-04-03T00:25:29;9.07;;;6.27;;
14554;SDS011;7364;50.870;4.722;2023-04-03T00:27:56;7.70;;;5.57;;
14554;SDS011;7364;50.870;4.722;2023-04-03T00:30:24;6.80;;;5.80;;
14554;SDS011;7364;50.870;4.722;2023-04-03T00:32:51;10.03;;;6.13;;
14554;SDS011;7364;50.870;4.722;2023-04-03T00:35:19;9.83;;;6.60;;
14554;SDS011;7364;50.870;4.722;2023-04-03T00:37:48;9.30;;;5.97;;
14554;SDS011;7364;50.870;4.722;2023-04-03T00:40:17;11.60;;;7.30;;
14554;SDS011;7364;50.870;4.722;2023-04-03T00:42:47;8.37;;;6.63;;
14554;SDS011;7364;50.870;4.722;2023-04-03T00:45:23;13.17;;;6.60;;
14554;SDS011;7364;50.870;4.722;2023-04-03T00:47:53;7.83;;;5.93;;
14554;SDS011;7364;50.870;4.722;2023-04-03T00:50:22;9.33;;;6.67;;
14554;SDS011;7364;50.870;4.722;2023-04-03T00:52:49;9.37;;;6.67;;
14554;SDS011;7364;50.870;4.722;2023-04-03T00:55:17;9.10;;;6.97;;
14554;SDS011;7364;50.870;4.722;2023-04-03T00:57:47;9.17;;;6.27;;
14554;SDS011;7364;50.870;4.722;2023-04-03T01:00:16;9.87;;;6.37;;
14554;SDS011;7364;50.870;4.722;2023-04-03T01:02:46;6.53;;;5.60;;
14554;SDS011;7364;50.870;4.722;2023-04-03T01:05:13;8.60;;;6.33;;
14554;SDS011;7364;50.870;4.722;2023-04-03T01:07:43;8.37;;;6.27;;
14554;SDS011;7364;50.870;4.722;2023-04-03T01:10:12;6.10;;;5.40;;
14554;SDS011;7364;50.870;4.722;2023-04-03T01:12:43;11.03;;;5.33;;
14554;SDS011;7364;50.870;4.722;2023-04-03T01:15:13;10.07;;;6.00;;
14554;SDS011;7364;50.870;4.722;2023-04-03T01:17:42;7.77;;;6.00;;
14554;SDS011;7364;50.870;4.722;2023-04-03T01:23:20;7.50;;;5.67;;
14554;SDS011;7364;50.870;4.722;2023-04-03T01:25:52;6.73;;;5.23;;
14554;SDS011;7364;50.870;4.722;2023-04-03T01:28:22;7.90;;;5.40;;
14554;SDS011;7364;50.870;4.722;2023-04-03T01:30:53;8.77;;;5.87;;
14554;SDS011;7364;50.870;4.722;2023-04-03T01:33:28;7.50;;;5.33;;
14554;SDS011;7364;50.870;4.722;2023-04-03T01:35:56;5.97;;;5.33;;
14554;SDS011;7364;50.870;4.722;2023-04-03T01:38:23;7.77;;;6.10;;
14554;SDS011;7364;50.870;4.722;2023-04-03T01:40:51;9.50;;;6.70;;
14554;SDS011;7364;50.870;4.722;2023-04-03T01:43:18;6.67;;;5.20;;
14554;SDS011;7364;50.870;4.722;2023-04-03T01:45:46;8.63;;;6.23;;
14554;SDS011;7364;50.870;4.722;2023-04-03T01:48:14;6.40;;;5.50;;
14554;SDS011;7364;50.870;4.722;2023-04-03T01:50:43;7.50;;;5.40;;
14554;SDS011;7364;50.870;4.722;2023-04-03T01:53:10;9.87;;;6.17;;
14554;SDS011;7364;50.870;4.722;2023-04-03T01:55:38;6.97;;;5.40;;
14554;SDS011;7364;50.870;4.722;2023-04-03T01:58:05;7.90;;;5.40;;
14554;SDS011;7364;50.870;4.722;2023-04-03T02:00:33;10.00;;;6.17;;
14554;SDS011;7364;50.870;4.722;2023-04-03T02:03:01;5.87;;;5.07;;
14554;SDS011;7364;50.870;4.722;2023-04-03T02:05:28;9.00;;;6.30;;
14554;SDS011;7364;50.870;4.722;2023-04-03T02:08:00;6.90;;;5.30;;
14554;SDS011;7364;50.870;4.722;2023-04-03T02:10:28;7.47;;;5.27;;
14554;SDS011;7364;50.870;4.722;2023-04-03T02:12:55;6.73;;;5.60;;
14554;SDS011;7364;50.870;4.722;2023-04-03T02:15:22;7.43;;;5.60;;
14554;SDS011;7364;50.870;4.722;2023-04-03T02:17:50;7.40;;;5.37;;
14554;SDS011;7364;50.870;4.722;2023-04-03T02:20:18;7.53;;;5.80;;
14554;SDS011;7364;50.870;4.722;2023-04-03T02:22:46;6.30;;;5.43;;
14554;SDS011;7364;50.870;4.722;2023-04-03T02:25:15;11.23;;;6.17;;
14554;SDS011;7364;50.870;4.722;2023-04-03T02:27:44;6.63;;;5.47;;
14554;SDS011;7364;50.870;4.722;2023-04-03T02:30:11;6.20;;;5.40;;
14554;SDS011;7364;50.870;4.722;2023-04-03T02:32:39;9.50;;;6.17;;
14554;SDS011;7364;50.870;4.722;2023-04-03T02:35:07;7.27;;;5.23;;
14554;SDS011;7364;50.870;4.722;2023-04-03T02:37:35;6.20;;;5.60;;
14554;SDS011;7364;50.870;4.722;2023-04-03T02:40:02;8.80;;;5.63;;
14554;SDS011;7364;50.870;4.722;2023-04-03T02:42:32;14.90;;;5.87;;
14554;SDS011;7364;50.870;4.722;2023-04-03T02:44:59;10.33;;;7.03;;
14554;SDS011;7364;50.870;4.722;2023-04-03T02:47:27;7.03;;;5.97;;
14554;SDS011;7364;50.870;4.722;2023-04-03T02:49:54;8.87;;;5.67;;
14554;SDS011;7364;50.870;4.722;2023-04-03T02:52:22;8.97;;;6.13;;
14554;SDS011;7364;50.870;4.722;2023-04-03T02:54:49;8.03;;;6.10;;
14554;SDS011;7364;50.870;4.722;2023-04-03T02:57:16;8.00;;;6.33;;
14554;SDS011;7364;50.870;4.722;2023-04-03T02:59:46;7.87;;;5.80;;
14554;SDS011;7364;50.870;4.722;2023-04-03T03:02:13;6.67;;;5.70;;
14554;SDS011;7364;50.870;4.722;2023-04-03T03:04:40;6.80;;;6.00;;
14554;SDS011;7364;50.870;4.722;2023-04-03T03:07:08;9.90;;;5.93;;
14554;SDS011;7364;50.870;4.722;2023-04-03T03:09:35;8.60;;;5.60;;
14554;SDS011;7364;50.870;4.722;2023-04-03T03:12:03;8.00;;;6.03;;
14554;SDS011;7364;50.870;4.722;2023-04-03T03:14:30;8.83;;;6.03;;
14554;SDS011;7364;50.870;4.722;2023-04-03T03:16:59;7.77;;;5.70;;
14554;SDS011;7364;50.870;4.722;2023-04-03T03:19:27;6.17;;;5.43;;
14554;SDS011;7364;50.870;4.722;2023-04-03T03:21:54;9.20;;;5.60;;
14554;SDS011;7364;50.870;4.722;2023-04-03T03:24:22;5.87;;;4.80;;
14554;SDS011;7364;50.870;4.722;2023-04-03T03:26:49;7.33;;;5.30;;
14554;SDS011;7364;50.870;4.722;2023-04-03T03:29:16;8.93;;;6.40;;
14554;SDS011;7364;50.870;4.722;2023-04-03T03:31:44;7.83;;;6.53;;
14554;SDS011;7364;50.870;4.722;2023-04-03T03:34:12;10.13;;;6.00;;
14554;SDS011;7364;50.870;4.722;2023-04-03T03:36:40;6.37;;;5.50;;
14554;SDS011;7364;50.870;4.722;2023-04-03T03:39:07;9.70;;;5.97;;
14554;SDS011;7364;50.870;4.722;2023-04-03T03:41:35;7.70;;;6.03;;
14554;SDS011;7364;50.870;4.722;2023-04-03T03:44:02;7.57;;;6.27;;
14554;SDS011;7364;50.870;4.722;2023-04-03T03:46:29;11.17;;;6.37;;
14554;SDS011;7364;50.870;4.722;2023-04-03T03:48:58;10.43;;;6.03;;
14554;SDS011;7364;50.870;4.722;2023-04-03T03:51:27;7.50;;;5.77;;
14554;SDS011;7364;50.870;4.722;2023-04-03T03:53:54;9.07;;;5.80;;
14554;SDS011;7364;50.870;4.722;2023-04-03T03:56:21;10.03;;;7.27;;
14554;SDS011;7364;50.870;4.722;2023-04-03T03:58:49;8.50;;;6.43;;
14554;SDS011;7364;50.870;4.722;2023-04-03T04:01:16;9.73;;;6.23;;
14554;SDS011;7364;50.870;4.722;2023-04-03T04:03:44;9.77;;;6.17;;
14554;SDS011;7364;50.870;4.722;2023-04-03T04:06:11;8.77;;;6.47;;
14554;SDS011;7364;50.870;4.722;2023-04-03T04:08:39;10.33;;;6.17;;
14554;SDS011;7364;50.870;4.722;2023-04-03T04:11:07;6.60;;;5.50;;
14554;SDS011;7364;50.870;4.722;2023-04-03T04:13:35;9.17;;;6.33;;
14554;SDS011;7364;50.870;4.722;2023-04-03T04:16:02;10.03;;;6.63;;
14554;SDS011;7364;50.870;4.722;2023-04-03T04:18:30;8.63;;;6.53;;
14554;SDS011;7364;50.870;4.722;2023-04-03T04:20:57;7.50;;;6.33;;
14554;SDS011;7364;50.870;4.722;2023-04-03T04:23:24;11.13;;;7.17;;
14554;SDS011;7364;50.870;4.722;2023-04-03T04:25:53;9.80;;;7.00;;
14554;SDS011;7364;50.870;4.722;2023-04-03T04:28:20;7.73;;;6.13;;
14554;SDS011;7364;50.870;4.722;2023-04-03T04:30:48;9.53;;;6.83;;
14554;SDS011;7364;50.870;4.722;2023-04-03T04:33:15;8.83;;;6.73;;
14554;SDS011;7364;50.870;4.722;2023-04-03T04:35:43;7.50;;;6.40;;
14554;SDS011;7364;50.870;4.722;2023-04-03T04:38:10;11.17;;;7.47;;
14554;SDS011;7364;50.870;4.722;2023-04-03T04:40:37;8.23;;;6.90;;
14554;SDS011;7364;50.870;4.722;2023-04-03T04:43:06;8.37;;;6.73;;
14554;SDS011;7364;50.870;4.722;2023-04-03T04:45:33;11.53;;;7.33;;
14554;SDS011;7364;50.870;4.722;2023-04-03T04:48:01;7.80;;;6.20;;
14554;SDS011;7364;50.870;4.722;2023-04-03T04:50:28;8.20;;;6.43;;
14554;SDS011;7364;50.870;4.722;2023-04-03T04:52:56;7.13;;;6.40;;
14554;SDS011;7364;50.870;4.722;2023-04-03T04:55:23;7.23;;;6.47;;
14554;SDS011;7364;50.870;4.722;2023-04-03T04:57:51;9.90;;;6.13;;
14554;SDS011;7364;50.870;4.722;2023-04-03T05:00:20;9.10;;;7.63;;
14554;SDS011;7364;50.870;4.722;2023-04-03T05:02:48;8.47;;;6.50;;
14554;SDS011;7364;50.870;4.722;2023-04-03T05:05:15;9.53;;;7.77;;
14554;SDS011;7364;50.870;4.722;2023-04-03T05:07:43;10.23;;;7.53;;
14554;SDS011;7364;50.870;4.722;2023-04-03T05:10:10;7.43;;;6.47;;
14554;SDS011;7364;50.870;4.722;2023-04-03T05:12:38;10.20;;;8.00;;
14554;SDS011;7364;50.870;4.722;2023-04-03T05:15:06;15.37;;;8.60;;
14554;SDS011;7364;50.870;4.722;2023-04-03T05:17:36;10.23;;;8.63;;
14554;SDS011;7364;50.870;4.722;2023-04-03T05:20:04;9.37;;;8.13;;
14554;SDS011;7364;50.870;4.722;2023-04-03T05:22:33;12.07;;;8.63;;
14554;SDS011;7364;50.870;4.722;2023-04-03T05:25:01;11.13;;;8.47;;
14554;SDS011;7364;50.870;4.722;2023-04-03T05:27:29;11.57;;;8.90;;
14554;SDS011;7364;50.870;4.722;2023-04-03T05:29:56;11.43;;;8.33;;
14554;SDS011;7364;50.870;4.722;2023-04-03T05:32:27;10.43;;;9.20;;
14554;SDS011;7364;50.870;4.722;2023-04-03T05:34:56;11.23;;;8.77;;
14554;SDS011;7364;50.870;4.722;2023-04-03T05:37:23;11.27;;;9.37;;
14554;SDS011;7364;50.870;4.722;2023-04-03T05:39:51;12.37;;;10.00;;
14554;SDS011;7364;50.870;4.722;2023-04-03T05:42:18;14.17;;;9.13;;
14554;SDS011;7364;50.870;4.722;2023-04-03T05:44:46;11.53;;;8.70;;
14554;SDS011;7364;50.870;4.722;2023-04-03T05:47:15;12.57;;;9.70;;
14554;SDS011;7364;50.870;4.722;2023-04-03T05:49:46;11.97;;;9.23;;
14554;SDS011;7364;50.870;4.722;2023-04-03T05:52:17;12.87;;;9.70;;
14554;SDS011;7364;50.870;4.722;2023-04-03T05:54:49;13.17;;;10.40;;
14554;SDS011;7364;50.870;4.722;2023-04-03T05:57:17;13.80;;;9.93;;
14554;SDS011;7364;50.870;4.722;2023-04-03T05:59:45;11.63;;;9.27;;
14554;SDS011;7364;50.870;4.722;2023-04-03T06:02:13;13.40;;;9.73;;
14554;SDS011;7364;50.870;4.722;2023-04-03T06:04:42;14.10;;;9.77;;
14554;SDS011;7364;50.870;4.722;2023-04-03T06:07:10;10.93;;;9.33;;
14554;SDS011;7364;50.870;4.722;2023-04-03T06:09:42;14.50;;;9.57;;
14554;SDS011;7364;50.870;4.722;2023-04-03T06:12:10;14.80;;;8.57;;
14554;SDS011;7364;50.870;4.722;2023-04-03T06:14:37;11.30;;;8.87;;
14554;SDS011;7364;50.870;4.722;2023-04-03T06:17:05;14.63;;;10.77;;
14554;SDS011;7364;50.870;4.722;2023-04-03T06:19:33;11.17;;;9.40;;
14554;SDS011;7364;50.870;4.722;2023-04-03T06:22:06;15.13;;;11.03;;
14554;SDS011;7364;50.870;4.722;2023-04-03T06:24:36;12.63;;;10.70;;
14554;SDS011;7364;50.870;4.722;2023-04-03T06:27:05;14.10;;;9.70;;
14554;SDS011;7364;50.870;4.722;2023-04-03T06:29:32;16.90;;;9.80;;
14554;SDS011;7364;50.870;4.722;2023-04-03T06:32:00;12.63;;;10.63;;
14554;SDS011;7364;50.870;4.722;2023-04-03T06:34:28;13.73;;;10.63;;
14554;SDS011;7364;50.870;4.722;2023-04-03T06:36:56;10.97;;;9.83;;
14554;SDS011;7364;50.870;4.722;2023-04-03T06:39:24;15.60;;;10.17;;
14554;SDS011;7364;50.870;4.722;2023-04-03T06:41:52;13.63;;;9.57;;
14554;SDS011;7364;50.870;4.722;2023-04-03T06:44:21;13.33;;;11.80;;
14554;SDS011;7364;50.870;4.722;2023-04-03T06:46:48;14.17;;;9.83;;
14554;SDS011;7364;50.870;4.722;2023-04-03T06:49:18;11.90;;;10.53;;
14554;SDS011;7364;50.870;4.722;2023-04-03T06:51:45;13.57;;;10.47;;
14554;SDS011;7364;50.870;4.722;2023-04-03T06:54:13;17.50;;;10.70;;
14554;SDS011;7364;50.870;4.722;2023-04-03T06:56:40;12.70;;;10.50;;
14554;SDS011;7364;50.870;4.722;2023-04-03T06:59:08;12.77;;;9.97;;
14554;SDS011;7364;50.870;4.722;2023-04-03T07:01:38;9.87;;;8.87;;
14554;SDS011;7364;50.870;4.722;2023-04-03T07:04:06;14.63;;;9.90;;
14554;SDS011;7364;50.870;4.722;2023-04-03T07:06:33;11.90;;;9.60;;
14554;SDS011;7364;50.870;4.722;2023-04-03T07:09:01;12.47;;;9.67;;
14554;SDS011;7364;50.870;4.722;2023-04-03T07:11:29;11.37;;;8.97;;
14554;SDS011;7364;50.870;4.722;2023-04-03T07:13:56;12.57;;;9.30;;
14554;SDS011;7364;50.870;4.722;2023-04-03T07:16:24;11.70;;;9.47;;
14554;SDS011;7364;50.870;4.722;2023-04-03T07:18:52;11.87;;;8.80;;
14554;SDS011;7364;50.870;4.722;2023-04-03T07:21:20;13.90;;;9.00;;
14554;SDS011;7364;50.870;4.722;2023-04-03T07:23:47;10.33;;;8.47;;
14554;SDS011;7364;50.870;4.722;2023-04-03T07:26:15;10.10;;;7.37;;
14554;SDS011;7364;50.870;4.722;2023-04-03T07:28:42;10.60;;;7.53;;
14554;SDS011;7364;50.870;4.722;2023-04-03T07:31:13;10.47;;;9.37;;
14554;SDS011;7364;50.870;4.722;2023-04-03T07:33:42;22.37;;;19.87;;
14554;SDS011;7364;50.870;4.722;2023-04-03T07:36:14;14.17;;;8.13;;
14554;SDS011;7364;50.870;4.722;2023-04-03T07:38:44;8.50;;;7.50;;
14554;SDS011;7364;50.870;4.722;2023-04-03T07:41:11;11.57;;;7.07;;
14554;SDS011;7364;50.870;4.722;2023-04-03T07:43:40;8.37;;;6.63;;
14554;SDS011;7364;50.870;4.722;2023-04-03T07:46:07;10.70;;;7.47;;
14554;SDS011;7364;50.870;4.722;2023-04-03T07:48:35;8.87;;;6.63;;
14554;SDS011;7364;50.870;4.722;2023-04-03T07:51:03;12.83;;;6.70;;
14554;SDS011;7364;50.870;4.722;2023-04-03T07:53:32;11.00;;;6.47;;
14554;SDS011;7364;50.870;4.722;2023-04-03T07:56:00;7.40;;;5.97;;
14554;SDS011;7364;50.870;4.722;2023-04-03T07:58:28;7.27;;;6.07;;
14554;SDS011;7364;50.870;4.722;2023-04-03T08:00:55;9.20;;;6.40;;
14554;SDS011;7364;50.870;4.722;2023-04-03T08:03:23;13.33;;;11.93;;
14554;SDS011;7364;50.870;4.722;2023-04-03T08:05:50;7.10;;;5.87;;
14554;SDS011;7364;50.870;4.722;2023-04-03T08:08:19;7.03;;;6.00;;
14554;SDS011;7364;50.870;4.722;2023-04-03T08:10:49;7.40;;;5.17;;
14554;SDS011;7364;50.870;4.722;2023-04-03T08:13:17;5.93;;;5.10;;
14554;SDS011;7364;50.870;4.722;2023-04-03T08:15:45;6.53;;;5.50;;
14554;SDS011;7364;50.870;4.722;2023-04-03T08:18:13;8.50;;;5.20;;
14554;SDS011;7364;50.870;4.722;2023-04-03T08:20:42;7.80;;;6.27;;
14554;SDS011;7364;50.870;4.722;2023-04-03T08:23:11;6.07;;;4.90;;
14554;SDS011;7364;50.870;4.722;2023-04-03T08:25:39;6.73;;;4.50;;
14554;SDS011;7364;50.870;4.722;2023-04-03T08:28:10;7.77;;;4.90;;
14554;SDS011;7364;50.870;4.722;2023-04-03T08:30:40;8.87;;;5.20;;
14554;SDS011;7364;50.870;4.722;2023-04-03T08:33:08;6.57;;;5.10;;
14554;SDS011;7364;50.870;4.722;2023-04-03T08:35:38;9.77;;;4.83;;
14554;SDS011;7364;50.870;4.722;2023-04-03T08:38:06;7.73;;;4.93;;
14554;SDS011;7364;50.870;4.722;2023-04-03T08:40:33;12.37;;;4.63;;
14554;SDS011;7364;50.870;4.722;2023-04-03T08:43:03;8.83;;;4.93;;
14554;SDS011;7364;50.870;4.722;2023-04-03T08:45:44;6.70;;;4.37;;
14554;SDS011;7364;50.870;4.722;2023-04-03T08:48:17;5.10;;;4.07;;
14554;SDS011;7364;50.870;4.722;2023-04-03T08:50:52;6.63;;;4.50;;
14554;SDS011;7364;50.870;4.722;2023-04-03T08:53:25;8.07;;;3.80;;
14554;SDS011;7364;50.870;4.722;2023-04-03T08:55:57;6.07;;;4.33;;
14554;SDS011;7364;50.870;4.722;2023-04-03T08:58:30;9.30;;;4.30;;
14554;SDS011;7364;50.870;4.722;2023-04-03T09:01:07;8.63;;;4.10;;
14554;SDS011;7364;50.870;4.722;2023-04-03T09:03:45;6.73;;;3.87;;
14554;SDS011;7364;50.870;4.722;2023-04-03T09:06:13;4.37;;;2.97;;
14554;SDS011;7364;50.870;4.722;2023-04-03T09:08:43;6.40;;;3.40;;
14554;SDS011;7364;50.870;4.722;2023-04-03T09:11:16;6.73;;;3.33;;
14554;SDS011;7364;50.870;4.722;2023-04-03T09:13:54;9.77;;;3.53;;
14554;SDS011;7364;50.870;4.722;2023-04-03T09:16:32;4.37;;;3.00;;
14554;SDS011;7364;50.870;4.722;2023-04-03T09:19:15;6.70;;;2.93;;
14554;SDS011;7364;50.870;4.722;2023-04-03T09:21:48;8.13;;;3.30;;
14554;SDS011;7364;50.870;4.722;2023-04-03T09:24:15;4.90;;;2.77;;
14554;SDS011;7364;50.870;4.722;2023-04-03T09:26:44;8.70;;;2.80;;
14554;SDS011;7364;50.870;4.722;2023-04-03T09:29:19;4.73;;;2.67;;
14554;SDS011;7364;50.870;4.722;2023-04-03T09:31:48;5.07;;;2.37;;
14554;SDS011;7364;50.870;4.722;2023-04-03T09:34:18;5.33;;;2.97;;
14554;SDS011;7364;50.870;4.722;2023-04-03T09:36:50;4.50;;;2.80;;
14554;SDS011;7364;50.870;4.722;2023-04-03T09:39:18;3.07;;;2.07;;
14554;SDS011;7364;50.870;4.722;2023-04-03T09:41:58;7.90;;;3.40;;
14554;SDS011;7364;50.870;4.722;2023-04-03T09:44:29;6.33;;;2.93;;
14554;SDS011;7364;50.870;4.722;2023-04-03T09:46:57;4.90;;;2.93;;
14554;SDS011;7364;50.870;4.722;2023-04-03T09:49:26;7.00;;;3.30;;
14554;SDS011;7364;50.870;4.722;2023-04-03T09:51:54;3.83;;;2.83;;
14554;SDS011;7364;50.870;4.722;2023-04-03T09:57:07;5.07;;;2.90;;
14554;SDS011;7364;50.870;4.722;2023-04-03T09:59:41;5.90;;;3.53;;
14554;SDS011;7364;50.870;4.722;2023-04-03T10:02:22;4.37;;;3.13;;
14554;SDS011;7364;50.870;4.722;2023-04-03T10:04:59;6.00;;;3.40;;
14554;SDS011;7364;50.870;4.722;2023-04-03T10:07:31;6.20;;;3.10;;
14554;SDS011;7364;50.870;4.722;2023-04-03T10:10:01;7.00;;;2.87;;
14554;SDS011;7364;50.870;4.722;2023-04-03T10:12:43;6.60;;;3.03;;
14554;SDS011;7364;50.870;4.722;2023-04-03T10:15:13;5.27;;;3.07;;
14554;SDS011;7364;50.870;4.722;2023-04-03T10:17:47;5.57;;;3.63;;
14554;SDS011;7364;50.870;4.722;2023-04-03T10:20:26;4.67;;;3.03;;
14554;SDS011;7364;50.870;4.722;2023-04-03T10:23:02;4.83;;;3.00;;
14554;SDS011;7364;50.870;4.722;2023-04-03T10:25:43;4.30;;;2.67;;
14554;SDS011;7364;50.870;4.722;2023-04-03T10:28:20;4.23;;;3.30;;
14554;SDS011;7364;50.870;4.722;2023-04-03T10:30:55;4.73;;;2.73;;
14554;SDS011;7364;50.870;4.722;2023-04-03T10:33:35;5.37;;;3.20;;
14554;SDS011;7364;50.870;4.722;2023-04-03T10:36:16;5.33;;;2.60;;
14554;SDS011;7364;50.870;4.722;2023-04-03T10:38:55;4.40;;;2.77;;
14554;SDS011;7364;50.870;4.722;2023-04-03T10:41:35;3.43;;;2.13;;
14554;SDS011;7364;50.870;4.722;2023-04-03T10:44:14;6.30;;;2.10;;
14554;SDS011;7364;50.870;4.722;2023-04-03T10:46:52;2.90;;;2.00;;
14554;SDS011;7364;50.870;4.722;2023-04-03T10:49:31;4.07;;;2.10;;
14554;SDS011;7364;50.870;4.722;2023-04-03T10:52:10;5.37;;;2.60;;
14554;SDS011;7364;50.870;4.722;2023-04-03T10:54:45;3.97;;;2.20;;
14554;SDS011;7364;50.870;4.722;2023-04-03T10:57:21;3.00;;;1.70;;
14554;SDS011;7364;50.870;4.722;2023-04-03T10:59:51;2.97;;;1.97;;
14554;SDS011;7364;50.870;4.722;2023-04-03T11:02:26;3.80;;;2.07;;
14554;SDS011;7364;50.870;4.722;2023-04-03T11:04:59;4.70;;;2.60;;
14554;SDS011;7364;50.870;4.722;2023-04-03T11:07:32;3.57;;;2.00;;
14554;SDS011;7364;50.870;4.722;2023-04-03T11:10:09;4.07;;;2.40;;
14554;SDS011;7364;50.870;4.722;2023-04-03T11:12:41;6.20;;;2.40;;
14554;SDS011;7364;50.870;4.722;2023-04-03T11:15:12;4.30;;;2.20;;
14554;SDS011;7364;50.870;4.722;2023-04-03T11:17:45;3.83;;;2.10;;
14554;SDS011;7364;50.870;4.722;2023-04-03T11:20:19;3.80;;;2.37;;
14554;SDS011;7364;50.870;4.722;2023-04-03T11:22:53;7.00;;;2.40;;
14554;SDS011;7364;50.870;4.722;2023-04-03T11:25:29;3.97;;;2.00;;
14554;SDS011;7364;50.870;4.722;2023-04-03T11:27:59;3.73;;;2.07;;
14554;SDS011;7364;50.870;4.722;2023-04-03T11:30:30;2.87;;;1.90;;
14554;SDS011;7364;50.870;4.722;2023-04-03T11:33:17;3.30;;;1.90;;
14554;SDS011;7364;50.870;4.722;2023-04-03T11:36:08;2.70;;;1.70;;
14554;SDS011;7364;50.870;4.722;2023-04-03T11:38:41;3.13;;;1.90;;
14554;SDS011;7364;50.870;4.722;2023-04-03T11:41:12;3.67;;;1.87;;
14554;SDS011;7364;50.870;4.722;2023-04-03T11:43:41;3.40;;;1.93;;
14554;SDS011;7364;50.870;4.722;2023-04-03T11:46:22;3.63;;;2.07;;
14554;SDS011;7364;50.870;4.722;2023-04-03T11:49:15;5.70;;;2.33;;
14554;SDS011;7364;50.870;4.722;2023-04-03T11:55:53;3.63;;;2.10;;
14554;SDS011;7364;50.870;4.722;2023-04-03T11:58:24;3.30;;;2.03;;
14554;SDS011;7364;50.870;4.722;2023-04-03T12:00:54;3.60;;;2.10;;
14554;SDS011;7364;50.870;4.722;2023-04-03T12:09:35;2.80;;;1.80;;
14554;SDS011;7364;50.870;4.722;2023-04-03T12:12:30;4.60;;;2.43;;
14554;SDS011;7364;50.870;4.722;2023-04-03T12:21:10;2.87;;;1.40;;
14554;SDS011;7364;50.870;4.722;2023-04-03T12:26:31;3.30;;;1.50;;
14554;SDS011;7364;50.870;4.722;2023-04-03T12:29:07;3.30;;;2.00;;
14554;SDS011;7364;50.870;4.722;2023-04-03T12:31:44;2.87;;;1.40;;
14554;SDS011;7364;50.870;4.722;2023-04-03T12:34:35;2.23;;;1.50;;
14554;SDS011;7364;50.870;4.722;2023-04-03T12:37:21;2.67;;;1.40;;
14554;SDS011;7364;50.870;4.722;2023-04-03T12:40:07;2.87;;;1.53;;
14554;SDS011;7364;50.870;4.722;2023-04-03T12:42:57;2.93;;;1.40;;
14554;SDS011;7364;50.870;4.722;2023-04-03T12:45:40;2.83;;;1.50;;
14554;SDS011;7364;50.870;4.722;2023-04-03T12:48:14;3.87;;;1.27;;
14554;SDS011;7364;50.870;4.722;2023-04-03T12:50:44;2.20;;;1.37;;
14554;SDS011;7364;50.870;4.722;2023-04-03T12:53:16;2.47;;;1.37;;
14554;SDS011;7364;50.870;4.722;2023-04-03T12:55:49;4.20;;;1.93;;
14554;SDS011;7364;50.870;4.722;2023-04-03T12:58:21;3.43;;;2.00;;
14554;SDS011;7364;50.870;4.722;2023-04-03T13:01:00;4.47;;;1.90;;
14554;SDS011;7364;50.870;4.722;2023-04-03T13:03:28;3.27;;;1.90;;
14554;SDS011;7364;50.870;4.722;2023-04-03T13:05:59;2.80;;;1.87;;
14554;SDS011;7364;50.870;4.722;2023-04-03T13:08:29;3.33;;;2.20;;
14554;SDS011;7364;50.870;4.722;2023-04-03T13:11:00;3.90;;;2.07;;
14554;SDS011;7364;50.870;4.722;2023-04-03T13:13:29;3.30;;;2.03;;
14554;SDS011;7364;50.870;4.722;2023-04-03T13:15:57;3.47;;;1.90;;
14554;SDS011;7364;50.870;4.722;2023-04-03T13:18:26;3.47;;;2.50;;
14554;SDS011;7364;50.870;4.722;2023-04-03T13:20:57;2.93;;;1.80;;
14554;SDS011;7364;50.870;4.722;2023-04-03T13:23:28;4.37;;;2.00;;
14554;SDS011;7364;50.870;4.722;2023-04-03T13:25:56;3.30;;;2.27;;
14554;SDS011;7364;50.870;4.722;2023-04-03T13:28:31;3.67;;;2.27;;
14554;SDS011;7364;50.870;4.722;2023-04-03T13:31:01;4.53;;;2.63;;
14554;SDS011;7364;50.870;4.722;2023-04-03T13:33:32;5.03;;;2.20;;
14554;SDS011;7364;50.870;4.722;2023-04-03T13:36:04;4.27;;;1.93;;
14554;SDS011;7364;50.870;4.722;2023-04-03T13:38:34;3.23;;;1.77;;
14554;SDS011;7364;50.870;4.722;2023-04-03T13:41:04;3.20;;;2.00;;
14554;SDS011;7364;50.870;4.722;2023-04-03T13:43:48;2.90;;;1.87;;
14554;SDS011;7364;50.870;4.722;2023-04-03T13:46:24;2.20;;;1.70;;
14554;SDS011;7364;50.870;4.722;2023-04-03T13:48:54;3.70;;;2.00;;
14554;SDS011;7364;50.870;4.722;2023-04-03T13:51:24;3.53;;;2.27;;
14554;SDS011;7364;50.870;4.722;2023-04-03T13:53:53;2.97;;;1.80;;
14554;SDS011;7364;50.870;4.722;2023-04-03T13:56:29;4.80;;;1.80;;
14554;SDS011;7364;50.870;4.722;2023-04-03T13:59:06;3.27;;;2.13;;
14554;SDS011;7364;50.870;4.722;2023-04-03T14:01:51;2.50;;;1.77;;
14554;SDS011;7364;50.870;4.722;2023-04-03T14:04:21;3.83;;;1.83;;
14554;SDS011;7364;50.870;4.722;2023-04-03T14:06:51;4.80;;;2.50;;
14554;SDS011;7364;50.870;4.722;2023-04-03T14:09:22;3.73;;;2.03;;
14554;SDS011;7364;50.870;4.722;2023-04-03T14:11:54;2.97;;;2.20;;
14554;SDS011;7364;50.870;4.722;2023-04-03T14:14:26;2.90;;;1.60;;
14554;SDS011;7364;50.870;4.722;2023-04-03T14:16:58;3.73;;;1.90;;
14554;SDS011;7364;50.870;4.722;2023-04-03T14:19:28;3.47;;;2.30;;
14554;SDS011;7364;50.870;4.722;2023-04-03T14:21:58;2.37;;;1.63;;
14554;SDS011;7364;50.870;4.722;2023-04-03T14:24:26;4.03;;;2.20;;
14554;SDS011;7364;50.870;4.722;2023-04-03T14:26:55;2.83;;;1.63;;
14554;SDS011;7364;50.870;4.722;2023-04-03T14:29:24;3.10;;;1.80;;
14554;SDS011;7364;50.870;4.722;2023-04-03T14:31:51;4.63;;;1.97;;
14554;SDS011;7364;50.870;4.722;2023-04-03T14:34:19;3.90;;;2.33;;
14554;SDS011;7364;50.870;4.722;2023-04-03T14:36:46;3.33;;;1.80;;
14554;SDS011;7364;50.870;4.722;2023-04-03T14:39:16;2.78;;;1.90;;
14554;SDS011;7364;50.870;4.722;2023-04-03T14:41:44;2.58;;;1.80;;
14554;SDS011;7364;50.870;4.722;2023-04-03T14:44:14;4.55;;;2.22;;
14554;SDS011;7364;50.870;4.722;2023-04-03T14:46:42;5.63;;;2.15;;
14554;SDS011;7364;50.870;4.722;2023-04-03T14:49:12;6.75;;;1.73;;
14554;SDS011;7364;50.870;4.722;2023-04-03T14:51:42;3.47;;;2.55;;
14554;SDS011;7364;50.870;4.722;2023-04-03T14:54:11;4.80;;;2.20;;
14554;SDS011;7364;50.870;4.722;2023-04-03T14:56:41;3.63;;;2.20;;
14554;SDS011;7364;50.870;4.722;2023-04-03T14:59:11;3.65;;;2.10;;
14554;SDS011;7364;50.870;4.722;2023-04-03T15:01:42;4.13;;;2.40;;
14554;SDS011;7364;50.870;4.722;2023-04-03T15:04:10;5.00;;;2.55;;
14554;SDS011;7364;50.870;4.722;2023-04-03T15:06:39;10.23;;;2.63;;
14554;SDS011;7364;50.870;4.722;2023-04-03T15:09:09;3.83;;;2.47;;
14554;SDS011;7364;50.870;4.722;2023-04-03T15:11:45;3.40;;;2.08;;
14554;SDS011;7364;50.870;4.722;2023-04-03T15:14:17;3.92;;;2.25;;
14554;SDS011;7364;50.870;4.722;2023-04-03T15:16:49;5.13;;;2.92;;
14554;SDS011;7364;50.870;4.722;2023-04-03T15:19:17;4.15;;;2.30;;
14554;SDS011;7364;50.870;4.722;2023-04-03T15:21:46;5.25;;;2.80;;
14554;SDS011;7364;50.870;4.722;2023-04-03T15:24:13;3.92;;;2.38;;
14554;SDS011;7364;50.870;4.722;2023-04-03T15:26:40;4.30;;;2.67;;
14554;SDS011;7364;50.870;4.722;2023-04-03T15:29:08;6.18;;;2.95;;
14554;SDS011;7364;50.870;4.722;2023-04-03T15:31:35;3.70;;;2.60;;
14554;SDS011;7364;50.870;4.722;2023-04-03T15:34:04;3.00;;;2.53;;
14554;SDS011;7364;50.870;4.722;2023-04-03T15:36:32;7.88;;;2.85;;
14554;SDS011;7364;50.870;4.722;2023-04-03T15:38:59;4.55;;;2.50;;
14554;SDS011;7364;50.870;4.722;2023-04-03T15:41:27;5.07;;;2.80;;